createdAt,value
2022-08-17T00:02:26.275Z,97924.41
2022-08-17T00:04:54.089Z,97922.34
2022-08-17T00:07:20.715Z,97928.53
2022-08-17T00:09:47.457Z,97933.88
2022-08-17T00:12:43.786Z,97931.31
2022-08-17T00:15:00.977Z,97924.22
2022-08-17T00:17:28.148Z,97926.56
2022-08-17T00:19:54.871Z,97923.38
2022-08-17T00:22:32.650Z,97926.25
2022-08-17T00:25:09.166Z,97927.44
2022-08-17T00:27:37.050Z,97929.78
2022-08-17T00:30:05.804Z,97923.19
2022-08-17T00:33:14.306Z,97918.19
2022-08-17T00:35:31.980Z,97925.75
2022-08-17T00:37:58.618Z,97929.13
2022-08-17T00:40:25.301Z,97924.53
2022-08-17T00:42:53.589Z,97922.78
2022-08-17T00:45:21.060Z,97926.09
2022-08-17T00:47:48.659Z,97934.66
2022-08-17T00:50:18.849Z,97939.94
2022-08-17T00:52:54.603Z,97945.47
2022-08-17T00:55:22.597Z,97934.78
2022-08-17T00:57:55.550Z,97931.50
2022-08-17T01:00:30.116Z,97936.16
2022-08-17T01:03:10.388Z,97924.88
2022-08-17T01:05:42.295Z,97918.84
2022-08-17T01:08:12.942Z,97924.97
2022-08-17T01:10:58.588Z,97932.41
2022-08-17T01:13:32.831Z,97924.63
2022-08-17T01:16:06.525Z,97934.53
2022-08-17T01:18:34.586Z,97938.53
2022-08-17T01:21:07.897Z,97935.41
2022-08-17T01:23:34.712Z,97937.59
2022-08-17T01:26:03.270Z,97933.78
2022-08-17T01:28:52.785Z,97929.13
2022-08-17T01:31:19.505Z,97934.16
2022-08-17T01:33:46.157Z,97925.88
2022-08-17T01:36:12.813Z,97934.94
2022-08-17T01:38:40.417Z,97930.00
2022-08-17T01:41:12.474Z,97931.72
2022-08-17T01:44:02.341Z,97944.44
2022-08-17T01:46:33.807Z,97941.19
2022-08-17T01:49:01.336Z,97935.28
2022-08-17T01:51:33.091Z,97936.66
2022-08-17T01:54:05.375Z,97934.28
2022-08-17T01:56:34.122Z,97933.41
2022-08-17T01:59:00.654Z,97940.94
2022-08-17T02:01:30.631Z,97940.25
2022-08-17T02:04:01.081Z,97942.72
2022-08-17T02:06:53.090Z,97934.38
2022-08-17T02:09:25.291Z,97948.53
2022-08-17T02:11:54.098Z,97934.16
2022-08-17T02:14:21.038Z,97933.53
2022-08-17T02:16:47.642Z,97930.66
2022-08-17T02:19:15.995Z,97926.88
2022-08-17T02:21:44.952Z,97931.13
2022-08-17T02:24:15.716Z,97924.38
2022-08-17T02:26:42.567Z,97927.72
2022-08-17T02:29:09.236Z,97926.88
2022-08-17T02:31:35.851Z,97919.56
2022-08-17T02:34:04.965Z,97925.38
2022-08-17T02:36:34.040Z,97926.38
2022-08-17T02:39:03.301Z,97924.00
2022-08-17T02:41:29.965Z,97916.13
2022-08-17T02:43:56.576Z,97915.19
2022-08-17T02:46:23.160Z,97916.13
2022-08-17T02:48:49.808Z,97913.94
2022-08-17T02:51:16.466Z,97907.78
2022-08-17T02:53:43.157Z,97910.03
2022-08-17T02:56:09.973Z,97908.50
2022-08-17T02:58:36.736Z,97909.06
2022-08-17T03:01:06.209Z,97903.56
2022-08-17T03:03:32.741Z,97912.88
2022-08-17T03:05:59.279Z,97911.91
2022-08-17T03:08:25.977Z,97914.78
2022-08-17T03:10:52.900Z,97909.25
2022-08-17T03:13:20.333Z,97914.66
2022-08-17T03:15:48.555Z,97910.78
2022-08-17T03:18:25.110Z,97917.59
2022-08-17T03:20:59.152Z,97918.69
2022-08-17T03:23:27.445Z,97919.44
2022-08-17T03:25:55.589Z,97921.50
2022-08-17T03:28:23.740Z,97923.06
2022-08-17T03:30:51.432Z,97920.41
2022-08-17T03:33:19.077Z,97910.63
2022-08-17T03:35:46.218Z,97913.97
2022-08-17T03:38:15.085Z,97917.13
2022-08-17T03:40:56.594Z,97915.84
2022-08-17T03:43:25.395Z,97911.28
2022-08-17T03:46:27.312Z,97912.59
2022-08-17T03:49:15.173Z,97912.25
2022-08-17T03:52:00.344Z,97910.53
2022-08-17T03:54:45.543Z,97909.78
2022-08-17T03:57:12.715Z,97919.09
2022-08-17T03:59:41.161Z,97916.19
2022-08-17T04:02:25.006Z,97916.19
2022-08-17T04:04:52.478Z,97909.59
2022-08-17T04:07:21.677Z,97913.38
2022-08-17T04:09:48.503Z,97914.44
2022-08-17T04:12:20.551Z,97918.50
2022-08-17T04:14:53.245Z,97927.13
2022-08-17T04:17:24.992Z,97926.66
2022-08-17T04:19:51.799Z,97933.72
2022-08-17T04:22:30.481Z,97939.28
2022-08-17T04:25:18.166Z,97938.38
2022-08-17T04:27:44.790Z,97937.91
2022-08-17T04:30:12.553Z,97941.38
2022-08-17T04:33:04.151Z,97944.78
2022-08-17T04:35:42.738Z,97942.97
2022-08-17T04:38:12.186Z,97946.75
2022-08-17T04:40:58.225Z,97944.97
2022-08-17T04:43:29.962Z,97947.84
2022-08-17T04:46:02.763Z,97940.25
2022-08-17T04:48:36.617Z,97947.50
2022-08-17T04:51:07.844Z,97953.94
2022-08-17T04:53:34.616Z,97950.50
2022-08-17T04:56:01.220Z,97967.81
2022-08-17T04:58:28.481Z,97969.53
2022-08-17T05:00:55.325Z,97968.94
2022-08-17T05:03:21.889Z,97967.16
2022-08-17T05:05:49.990Z,97973.31
2022-08-17T05:08:19.426Z,97970.44
2022-08-17T05:10:47.498Z,97978.78
2022-08-17T05:13:20.762Z,97980.72
2022-08-17T05:15:49.606Z,97977.25
2022-08-17T05:18:16.931Z,97975.28
2022-08-17T05:20:44.449Z,97979.16
2022-08-17T05:23:15.078Z,97978.56
2022-08-17T05:25:47.768Z,97976.19
2022-08-17T05:28:16.924Z,97975.28
2022-08-17T05:30:49.232Z,97974.03
2022-08-17T05:33:23.158Z,97976.22
2022-08-17T05:35:51.753Z,97973.84
2022-08-17T05:38:20.000Z,97966.19
2022-08-17T05:40:47.405Z,97978.66
2022-08-17T05:43:18.118Z,97987.13
2022-08-17T05:45:56.655Z,97980.59
2022-08-17T05:48:39.479Z,97984.03
2022-08-17T05:51:15.441Z,97975.31
2022-08-17T05:53:55.549Z,97968.03
2022-08-17T05:56:31.134Z,97972.13
2022-08-17T05:59:09.296Z,97969.50
2022-08-17T06:01:44.221Z,97970.97
2022-08-17T06:04:42.912Z,97967.91
2022-08-17T06:07:17.221Z,97972.38
2022-08-17T06:09:54.219Z,97968.78
2022-08-17T06:12:26.568Z,97966.53
2022-08-17T06:15:05.429Z,97976.66
2022-08-17T06:17:32.459Z,97981.81
2022-08-17T06:20:03.675Z,97980.84
2022-08-17T06:22:38.007Z,97978.50
2022-08-17T06:25:10.281Z,97978.84
2022-08-17T06:27:43.207Z,97976.31
2022-08-17T06:30:25.983Z,97974.47
2022-08-17T06:32:55.306Z,97976.28
2022-08-17T06:35:34.027Z,97981.19
2022-08-17T06:38:38.270Z,97973.75
2022-08-17T06:41:13.874Z,97972.75
2022-08-17T06:43:47.878Z,97971.84
2022-08-17T06:46:30.840Z,97978.19
2022-08-17T06:49:17.434Z,97970.25
2022-08-17T06:51:51.764Z,97972.03
2022-08-17T06:54:37.195Z,97971.03
2022-08-17T06:57:32.277Z,97969.56
2022-08-17T07:00:13.315Z,97976.06
2022-08-17T07:03:08.188Z,97978.94
2022-08-17T07:06:03.318Z,97975.38
2022-08-17T07:08:38.201Z,97974.47
2022-08-17T07:11:14.649Z,97968.53
2022-08-17T07:14:06.584Z,97966.72
2022-08-17T07:16:41.916Z,97969.16
2022-08-17T07:19:10.836Z,97971.78
2022-08-17T07:21:48.731Z,97972.59
2022-08-17T07:24:47.397Z,97970.56
2022-08-17T07:27:37.248Z,97974.44
2022-08-17T07:30:11.643Z,97976.28
2022-08-17T07:32:46.029Z,97984.72
2022-08-17T07:35:17.394Z,97979.41
2022-08-17T07:38:24.245Z,97983.13
2022-08-17T07:40:57.850Z,97980.09
2022-08-17T07:43:33.065Z,97987.63
2022-08-17T07:46:24.143Z,97979.66
2022-08-17T07:48:55.032Z,97975.59
2022-08-17T07:51:28.588Z,97977.25
2022-08-17T07:54:22.514Z,97977.91
2022-08-17T07:56:55.243Z,97979.75
2022-08-17T07:59:33.983Z,97976.34
2022-08-17T08:02:05.402Z,97980.75
2022-08-17T08:07:32.081Z,97981.16
2022-08-17T08:10:12.508Z,97988.47
2022-08-17T08:12:53.654Z,97984.91
2022-08-17T08:15:33.606Z,97986.53
2022-08-17T08:18:03.347Z,97982.03
2022-08-17T08:20:53.898Z,97987.06
2022-08-17T08:23:33.486Z,97991.31
2022-08-17T08:26:31.095Z,97991.75
2022-08-17T08:29:28.406Z,97988.56
2022-08-17T08:32:10.222Z,97995.63
2022-08-17T08:35:03.691Z,97993.03
2022-08-17T08:37:58.431Z,97983.47
2022-08-17T08:40:40.175Z,97984.78
2022-08-17T08:43:22.591Z,97987.06
2022-08-17T08:45:56.755Z,97987.34
2022-08-17T08:48:58.019Z,97987.00
2022-08-17T08:51:36.344Z,97982.53
2022-08-17T08:54:26.863Z,97973.28
2022-08-17T09:00:02.072Z,97962.56
2022-08-17T09:02:43.538Z,97965.53
2022-08-17T09:05:28.819Z,97957.16
2022-08-17T09:08:07.752Z,97960.19
2022-08-17T09:10:40.779Z,97959.69
2022-08-17T09:13:16.372Z,97966.16
2022-08-17T09:15:47.443Z,97961.63
2022-08-17T09:19:00.841Z,97954.84
2022-08-17T09:21:22.608Z,97968.19
2022-08-17T09:24:04.909Z,97963.97
2022-08-17T09:26:40.993Z,97951.91
2022-08-17T09:29:12.586Z,97954.84
2022-08-17T09:31:52.643Z,97947.44
2022-08-17T09:34:32.119Z,97950.22
2022-08-17T09:37:25.947Z,97946.84
2022-08-17T09:40:09.671Z,97947.38
2022-08-17T09:42:45.772Z,97945.69
2022-08-17T09:45:39.080Z,97952.88
2022-08-17T09:48:18.440Z,97943.41
2022-08-17T09:51:07.355Z,97949.69
2022-08-17T09:53:38.176Z,97945.31
2022-08-17T09:56:24.230Z,97941.72
2022-08-17T09:59:14.097Z,97945.72
2022-08-17T10:01:55.780Z,97947.78
2022-08-17T10:04:29.896Z,97934.16
2022-08-17T10:07:19.046Z,97936.25
2022-08-17T10:10:03.802Z,97933.31
2022-08-17T10:12:47.157Z,97925.66
2022-08-17T10:15:52.347Z,97934.22
2022-08-17T10:19:05.512Z,97926.16
2022-08-17T10:22:00.664Z,97924.59
2022-08-17T10:25:21.331Z,97926.38
2022-08-17T10:27:52.264Z,97920.56
2022-08-17T10:30:22.472Z,97918.34
2022-08-17T10:32:55.145Z,97918.78
2022-08-17T10:35:35.684Z,97914.13
2022-08-17T10:38:27.784Z,97918.13
2022-08-17T10:40:57.897Z,97913.84
2022-08-17T10:43:34.082Z,97917.03
2022-08-17T10:46:31.389Z,97912.81
2022-08-17T10:49:16.794Z,97911.19
2022-08-17T10:51:49.344Z,97908.66
2022-08-17T10:54:25.069Z,97915.13
2022-08-17T10:56:53.837Z,97914.16
2022-08-17T10:59:35.584Z,97919.00
2022-08-17T11:02:05.064Z,97916.50
2022-08-17T11:04:50.364Z,97916.66
2022-08-17T11:07:39.828Z,97916.69
2022-08-17T11:10:46.470Z,97915.06
2022-08-17T11:13:38.796Z,97905.06
2022-08-17T11:16:28.527Z,97919.94
2022-08-17T11:19:18.766Z,97912.28
2022-08-17T11:22:12.917Z,97920.91
2022-08-17T11:24:44.671Z,97917.19
2022-08-17T11:27:24.890Z,97915.38
2022-08-17T11:30:15.103Z,97912.88
2022-08-17T11:32:53.007Z,97915.81
2022-08-17T11:35:21.591Z,97904.50
2022-08-17T11:38:16.127Z,97899.78
2022-08-17T11:41:03.585Z,97905.38
2022-08-17T11:44:08.076Z,97903.00
2022-08-17T11:47:20.913Z,97903.47
2022-08-17T11:50:28.014Z,97893.50
2022-08-17T11:52:55.392Z,97894.22
2022-08-17T11:55:39.415Z,97908.88
2022-08-17T11:58:30.161Z,97896.03
2022-08-17T12:01:00.951Z,97897.34
2022-08-17T12:03:33.498Z,97903.09
2022-08-17T12:06:11.297Z,97894.09
2022-08-17T12:08:45.760Z,97893.50
2022-08-17T12:12:04.626Z,97888.81
2022-08-17T12:14:11.613Z,97891.38
2022-08-17T12:16:43.863Z,97899.66
2022-08-17T12:19:21.164Z,97884.63
2022-08-17T12:22:12.558Z,97890.38
2022-08-17T12:24:56.865Z,97882.69
2022-08-17T12:28:04.475Z,97888.34
2022-08-17T12:30:22.595Z,97882.13
2022-08-17T12:32:50.141Z,97872.81
2022-08-17T12:35:29.647Z,97876.16
2022-08-17T12:38:00.636Z,97881.25
2022-08-17T12:40:32.427Z,97883.72
2022-08-17T12:43:02.001Z,97880.53
2022-08-17T12:45:31.991Z,97873.06
2022-08-17T12:48:07.860Z,97874.09
2022-08-17T12:50:37.193Z,97869.16
2022-08-17T12:53:10.092Z,97877.19
2022-08-17T12:55:38.967Z,97877.97
2022-08-17T12:58:10.935Z,97874.31
2022-08-17T13:00:47.545Z,97864.72
2022-08-17T13:03:23.514Z,97866.78
2022-08-17T13:05:53.194Z,97863.66
2022-08-17T13:08:41.232Z,97864.44
2022-08-17T13:11:18.739Z,97859.84
2022-08-17T13:13:54.776Z,97859.03
2022-08-17T13:16:27.879Z,97866.59
2022-08-17T13:19:18.146Z,97868.09
2022-08-17T13:21:59.412Z,97874.34
2022-08-17T13:24:38.293Z,97874.72
2022-08-17T13:27:08.874Z,97866.47
2022-08-17T13:29:38.703Z,97863.66
2022-08-17T13:32:12.917Z,97863.22
2022-08-17T13:35:12.921Z,97867.50
2022-08-17T13:37:36.615Z,97874.00
2022-08-17T13:40:23.168Z,97870.41
2022-08-17T13:42:54.459Z,97874.97
2022-08-17T13:45:35.551Z,97869.50
2022-08-17T13:48:13.542Z,97869.50
2022-08-17T13:50:43.748Z,97863.41
2022-08-17T13:53:23.230Z,97867.59
2022-08-17T13:55:56.326Z,97867.25
2022-08-17T13:58:27.929Z,97868.22
2022-08-17T14:00:56.315Z,97875.66
2022-08-17T14:03:24.131Z,97874.19
2022-08-17T14:05:52.589Z,97877.69
2022-08-17T14:08:20.879Z,97875.72
2022-08-17T14:10:58.779Z,97869.38
2022-08-17T14:13:25.426Z,97866.34
2022-08-17T14:15:54.002Z,97866.28
2022-08-17T14:18:55.722Z,97867.25
2022-08-17T14:21:10.636Z,97854.66
2022-08-17T14:23:37.875Z,97858.44
2022-08-17T14:26:05.112Z,97858.78
2022-08-17T14:28:31.963Z,97857.66
2022-08-17T14:31:00.253Z,97855.84
2022-08-17T14:33:28.765Z,97857.13
2022-08-17T14:35:55.986Z,97857.69
2022-08-17T14:38:22.793Z,97865.78
2022-08-17T14:40:49.762Z,97870.81
2022-08-17T14:43:16.561Z,97870.19
2022-08-17T14:45:43.527Z,97874.94
2022-08-17T14:48:10.668Z,97875.47
2022-08-17T14:50:41.041Z,97869.47
2022-08-17T14:53:13.718Z,97858.41
2022-08-17T14:55:40.571Z,97868.53
2022-08-17T14:58:09.095Z,97867.84
2022-08-17T15:00:36.185Z,97875.16
2022-08-17T15:03:03.740Z,97873.97
2022-08-17T15:05:34.341Z,97882.75
2022-08-17T15:08:02.401Z,97875.25
2022-08-17T15:10:30.258Z,97870.81
2022-08-17T15:12:57.533Z,97871.13
2022-08-17T15:15:24.355Z,97877.72
2022-08-17T15:17:51.788Z,97884.59
2022-08-17T15:20:28.266Z,97892.53
2022-08-17T15:22:56.295Z,97881.50
2022-08-17T15:25:28.780Z,97888.88
2022-08-17T15:27:56.206Z,97887.53
2022-08-17T15:30:23.693Z,97884.25
2022-08-17T15:32:55.000Z,97887.75
2022-08-17T15:35:27.749Z,97882.09
2022-08-17T15:38:08.029Z,97890.41
2022-08-17T15:40:39.386Z,97884.69
2022-08-17T15:43:08.147Z,97884.16
2022-08-17T15:45:35.370Z,97885.22
2022-08-17T15:48:02.343Z,97878.03
2022-08-17T15:50:29.119Z,97878.03
2022-08-17T15:53:00.693Z,97880.59
2022-08-17T15:55:29.859Z,97879.72
2022-08-17T15:57:56.822Z,97887.41
2022-08-17T16:00:28.476Z,97891.00
2022-08-17T16:03:22.921Z,97893.88
2022-08-17T16:05:43.395Z,97880.16
2022-08-17T16:08:11.240Z,97874.13
2022-08-17T16:10:37.945Z,97866.16
2022-08-17T16:13:04.802Z,97863.63
2022-08-17T16:15:32.049Z,97852.81
2022-08-17T16:17:59.194Z,97852.72
2022-08-17T16:20:26.118Z,97851.03
2022-08-17T16:22:54.449Z,97854.44
2022-08-17T16:25:50.327Z,97864.75
2022-08-17T16:28:12.315Z,97862.22
2022-08-17T16:30:39.036Z,97870.53
2022-08-17T16:33:06.003Z,97856.75
2022-08-17T16:35:33.762Z,97854.41
2022-08-17T16:38:01.065Z,97856.09
2022-08-17T16:40:29.634Z,97859.47
2022-08-17T16:43:02.394Z,97857.75
2022-08-17T16:45:36.468Z,97858.06
2022-08-17T16:48:03.702Z,97854.88
2022-08-17T16:50:32.085Z,97867.19
2022-08-17T16:53:09.220Z,97861.78
2022-08-17T16:55:37.019Z,97864.03
2022-08-17T16:58:04.894Z,97868.25
2022-08-17T17:00:33.525Z,97866.41
2022-08-17T17:03:19.163Z,97869.53
2022-08-17T17:06:14.629Z,97857.63
2022-08-17T17:08:48.581Z,97864.75
2022-08-17T17:11:45.643Z,97862.59
2022-08-17T17:14:42.183Z,97869.34
2022-08-17T17:17:26.771Z,97865.31
2022-08-17T17:20:05.930Z,97861.91
2022-08-17T17:22:54.818Z,97858.72
2022-08-17T17:25:21.419Z,97851.25
2022-08-17T17:28:00.054Z,97847.03
2022-08-17T17:30:37.334Z,97861.06
2022-08-17T17:33:09.497Z,97856.34
2022-08-17T17:35:46.858Z,97838.56
2022-08-17T17:38:23.685Z,97842.28
2022-08-17T17:41:05.681Z,97841.63
2022-08-17T17:43:39.808Z,97853.72
2022-08-17T17:46:29.146Z,97858.28
2022-08-17T17:48:57.529Z,97866.88
2022-08-17T17:52:02.807Z,97876.31
2022-08-17T17:54:43.819Z,97874.63
2022-08-17T17:57:24.980Z,97884.91
2022-08-17T18:00:23.695Z,97883.03
2022-08-17T18:03:27.434Z,97894.19
2022-08-17T18:06:16.400Z,97893.69
2022-08-17T18:09:24.526Z,97897.19
2022-08-17T18:12:17.212Z,97894.75
2022-08-17T18:14:55.559Z,97885.25
2022-08-17T18:17:22.347Z,97880.84
2022-08-17T18:19:48.933Z,97879.63
2022-08-17T18:22:20.834Z,97874.03
2022-08-17T18:24:54.089Z,97884.28
2022-08-17T18:27:49.659Z,97881.53
2022-08-17T18:30:19.533Z,97888.06
2022-08-17T18:32:49.551Z,97882.19
2022-08-17T18:35:19.106Z,97885.78
2022-08-17T18:38:17.985Z,97884.13
2022-08-17T18:40:48.295Z,97891.34
2022-08-17T18:43:28.536Z,97886.78
2022-08-17T18:46:28.837Z,97884.13
2022-08-17T18:48:59.218Z,97890.19
2022-08-17T18:51:42.719Z,97881.88
2022-08-17T18:54:21.939Z,97886.63
2022-08-17T18:56:52.264Z,97879.19
2022-08-17T18:59:41.664Z,97882.75
2022-08-17T19:02:20.717Z,97891.47
2022-08-17T19:04:59.430Z,97893.41
2022-08-17T19:07:34.890Z,97893.69
2022-08-17T19:10:28.410Z,97897.53
2022-08-17T19:13:01.707Z,97898.81
2022-08-17T19:16:22.306Z,97899.38
2022-08-17T19:18:56.248Z,97895.47
2022-08-17T19:21:34.728Z,97900.84
2022-08-17T19:24:27.422Z,97906.75
2022-08-17T19:27:19.606Z,97903.91
2022-08-17T19:30:07.769Z,97898.16
2022-08-17T19:32:35.866Z,97904.69
2022-08-17T19:35:06.225Z,97902.53
2022-08-17T19:37:46.426Z,97908.81
2022-08-17T19:40:51.891Z,97902.41
2022-08-17T19:43:54.184Z,97908.72
2022-08-17T19:47:00.761Z,97907.84
2022-08-17T19:49:57.156Z,97900.75
2022-08-17T19:52:46.890Z,97904.31
2022-08-17T19:55:22.209Z,97903.59
2022-08-17T19:58:10.396Z,97901.44
2022-08-17T20:00:50.517Z,97904.94
2022-08-17T20:03:27.305Z,97906.22
2022-08-17T20:06:12.499Z,97908.63
2022-08-17T20:08:53.858Z,97907.72
2022-08-17T20:11:26.090Z,97913.56
2022-08-17T20:14:19.295Z,97910.97
2022-08-17T20:16:46.431Z,97905.59
2022-08-17T20:19:24.303Z,97904.41
2022-08-17T20:22:04.229Z,97906.63
2022-08-17T20:24:48.315Z,97909.44
2022-08-17T20:27:31.741Z,97915.22
2022-08-17T20:30:06.658Z,97908.88
2022-08-17T20:32:48.862Z,97910.09
2022-08-17T20:35:16.856Z,97904.47
2022-08-17T20:37:52.867Z,97911.38
2022-08-17T20:40:24.315Z,97912.78
2022-08-17T20:42:50.926Z,97911.47
2022-08-17T20:45:26.505Z,97910.91
2022-08-17T20:51:09.658Z,97911.03
2022-08-17T20:53:48.437Z,97916.34
2022-08-17T20:56:48.927Z,97913.19
2022-08-17T20:59:22.436Z,97906.03
2022-08-17T21:02:18.057Z,97907.38
2022-08-17T21:05:00.196Z,97897.69
2022-08-17T21:07:42.954Z,97905.97
2022-08-17T21:10:19.643Z,97911.81
2022-08-17T21:13:07.439Z,97909.16
2022-08-17T21:15:54.296Z,97913.75
2022-08-17T21:18:44.671Z,97918.66
2022-08-17T21:21:24.301Z,97924.13
2022-08-17T21:23:57.489Z,97921.31
2022-08-17T21:26:51.172Z,97921.56
2022-08-17T21:29:31.046Z,97924.00
2022-08-17T21:31:59.328Z,97930.69
2022-08-17T21:34:33.149Z,97932.31
2022-08-17T21:37:18.864Z,97935.91
2022-08-17T21:39:54.050Z,97938.81
2022-08-17T21:42:34.500Z,97943.94
2022-08-17T21:45:17.992Z,97943.97
2022-08-17T21:47:50.576Z,97939.34
2022-08-17T21:50:24.438Z,97944.91
2022-08-17T21:52:56.234Z,97941.38
2022-08-17T21:55:28.331Z,97942.81
2022-08-17T21:58:12.224Z,97944.59
2022-08-17T22:00:41.102Z,97955.38
2022-08-17T22:03:23.911Z,97947.25
2022-08-17T22:05:51.623Z,97957.78
2022-08-17T22:08:22.489Z,97955.63
2022-08-17T22:10:51.340Z,97960.84
2022-08-17T22:13:17.961Z,97961.19
2022-08-17T22:16:15.701Z,97964.06
2022-08-17T22:18:58.140Z,97955.50
2022-08-17T22:21:25.422Z,97957.31
2022-08-17T22:24:06.887Z,97952.22
2022-08-17T22:27:07.710Z,97949.59
2022-08-17T22:29:43.039Z,97952.94
2022-08-17T22:32:09.898Z,97959.28
2022-08-17T22:34:38.690Z,97953.75
2022-08-17T22:37:29.024Z,97951.81
2022-08-17T22:39:59.605Z,97959.09
2022-08-17T22:42:26.409Z,97961.69
2022-08-17T22:44:54.103Z,97956.75
2022-08-17T22:47:40.993Z,97963.06
2022-08-17T22:50:21.760Z,97954.31
2022-08-17T22:53:17.069Z,97964.31
2022-08-17T22:56:15.197Z,97967.31
2022-08-17T22:59:10.711Z,97960.16
2022-08-17T23:01:39.264Z,97960.09
2022-08-17T23:04:09.793Z,97961.22
2022-08-17T23:06:38.861Z,97953.84
2022-08-17T23:09:07.170Z,97954.91
2022-08-17T23:11:48.754Z,97954.31
2022-08-17T23:14:18.576Z,97956.00
2022-08-17T23:16:45.749Z,97957.72
2022-08-17T23:19:16.100Z,97944.13
2022-08-17T23:21:45.142Z,97943.59
2022-08-17T23:24:17.840Z,97952.97
2022-08-17T23:26:44.512Z,97940.72
2022-08-17T23:29:11.001Z,97947.44
2022-08-17T23:31:39.364Z,97940.50
2022-08-17T23:34:11.732Z,97942.91
2022-08-17T23:36:38.395Z,97942.19
2022-08-17T23:39:06.547Z,97948.25
2022-08-17T23:41:38.537Z,97958.09
2022-08-17T23:44:06.534Z,97954.88
2022-08-17T23:46:33.136Z,97951.50
2022-08-17T23:49:00.534Z,97950.97
2022-08-17T23:51:31.549Z,97945.19
2022-08-17T23:54:07.684Z,97950.22
2022-08-17T23:56:41.949Z,97943.94
2022-08-17T23:59:08.533Z,97943.28
